sensor_id;sensor_type;location;lat;lon;timestamp;P1;durP1;ratioP1;P2;durP2;ratioP2
43678;SDS011;29279;50.858;4.392;2023-04-01T00:00:15;21.25;;;3.10;;
43678;SDS011;29279;50.858;4.392;2023-04-01T00:02:42;15.77;;;3.58;;
43678;SDS011;29279;50.858;4.392;2023-04-01T00:05:08;15.70;;;3.28;;
43678;SDS011;29279;50.858;4.392;2023-04-01T00:07:35;15.15;;;3.10;;
43678;SDS011;29279;50.858;4.392;2023-04-01T00:10:02;18.15;;;4.07;;
43678;SDS011;29279;50.858;4.392;2023-04-01T00:12:29;19.58;;;3.17;;
43678;SDS011;29279;50.858;4.392;2023-04-01T00:14:54;16.50;;;3.33;;
43678;SDS011;29279;50.858;4.392;2023-04-01T00:17:20;14.63;;;3.50;;
43678;SDS011;29279;50.858;4.392;2023-04-01T00:19:46;16.77;;;3.40;;
43678;SDS011;29279;50.858;4.392;2023-04-01T00:22:12;15.93;;;3.80;;
43678;SDS011;29279;50.858;4.392;2023-04-01T00:24:38;24.17;;;3.63;;
43678;SDS011;29279;50.858;4.392;2023-04-01T00:27:04;16.85;;;3.40;;
43678;SDS011;29279;50.858;4.392;2023-04-01T00:29:30;12.85;;;3.10;;
43678;SDS011;29279;50.858;4.392;2023-04-01T00:31:57;15.90;;;3.38;;
43678;SDS011;29279;50.858;4.392;2023-04-01T00:34:23;11.13;;;3.00;;
43678;SDS011;29279;50.858;4.392;2023-04-01T00:36:52;15.57;;;3.40;;
43678;SDS011;29279;50.858;4.392;2023-04-01T00:39:19;13.50;;;3.45;;
43678;SDS011;29279;50.858;4.392;2023-04-01T00:41:46;17.90;;;3.20;;
43678;SDS011;29279;50.858;4.392;2023-04-01T00:44:17;16.92;;;4.00;;
43678;SDS011;29279;50.858;4.392;2023-04-01T00:46:45;18.25;;;3.95;;
43678;SDS011;29279;50.858;4.392;2023-04-01T00:49:11;13.73;;;3.40;;
43678;SDS011;29279;50.858;4.392;2023-04-01T00:51:37;9.80;;;2.67;;
43678;SDS011;29279;50.858;4.392;2023-04-01T00:54:06;10.35;;;2.65;;
43678;SDS011;29279;50.858;4.392;2023-04-01T00:56:34;10.00;;;2.70;;
43678;SDS011;29279;50.858;4.392;2023-04-01T00:59:13;9.98;;;2.45;;
43678;SDS011;29279;50.858;4.392;2023-04-01T01:01:41;11.60;;;2.33;;
43678;SDS011;29279;50.858;4.392;2023-04-01T01:04:07;10.88;;;2.22;;
43678;SDS011;29279;50.858;4.392;2023-04-01T01:09:30;6.35;;;1.95;;
43678;SDS011;29279;50.858;4.392;2023-04-01T01:12:13;13.82;;;1.98;;
43678;SDS011;29279;50.858;4.392;2023-04-01T01:15:11;9.50;;;1.98;;
43678;SDS011;29279;50.858;4.392;2023-04-01T01:18:02;7.95;;;1.20;;
43678;SDS011;29279;50.858;4.392;2023-04-01T01:23:28;6.78;;;1.40;;
43678;SDS011;29279;50.858;4.392;2023-04-01T01:31:37;4.70;;;1.10;;
43678;SDS011;29279;50.858;4.392;2023-04-01T01:36:56;8.90;;;2.08;;
43678;SDS011;29279;50.858;4.392;2023-04-01T01:39:26;5.32;;;1.95;;
43678;SDS011;29279;50.858;4.392;2023-04-01T01:41:56;5.55;;;1.85;;
43678;SDS011;29279;50.858;4.392;2023-04-01T01:44:25;5.90;;;1.95;;
43678;SDS011;29279;50.858;4.392;2023-04-01T01:46:55;7.63;;;2.55;;
43678;SDS011;29279;50.858;4.392;2023-04-01T01:49:22;5.80;;;2.10;;
43678;SDS011;29279;50.858;4.392;2023-04-01T01:51:49;10.15;;;2.80;;
43678;SDS011;29279;50.858;4.392;2023-04-01T01:54:16;8.07;;;2.88;;
43678;SDS011;29279;50.858;4.392;2023-04-01T01:56:43;10.70;;;3.30;;
43678;SDS011;29279;50.858;4.392;2023-04-01T01:59:14;9.25;;;3.88;;
43678;SDS011;29279;50.858;4.392;2023-04-01T02:01:43;13.18;;;3.97;;
43678;SDS011;29279;50.858;4.392;2023-04-01T02:04:13;12.13;;;4.50;;
43678;SDS011;29279;50.858;4.392;2023-04-01T02:06:42;11.88;;;4.13;;
43678;SDS011;29279;50.858;4.392;2023-04-01T02:09:18;11.65;;;3.83;;
43678;SDS011;29279;50.858;4.392;2023-04-01T02:11:49;16.65;;;5.57;;
43678;SDS011;29279;50.858;4.392;2023-04-01T02:15:01;9.30;;;4.07;;
43678;SDS011;29279;50.858;4.392;2023-04-01T02:17:11;14.20;;;3.92;;
43678;SDS011;29279;50.858;4.392;2023-04-01T02:19:42;10.18;;;3.97;;
43678;SDS011;29279;50.858;4.392;2023-04-01T02:22:22;14.18;;;3.90;;
43678;SDS011;29279;50.858;4.392;2023-04-01T02:24:52;15.20;;;4.47;;
43678;SDS011;29279;50.858;4.392;2023-04-01T02:27:22;11.63;;;4.13;;
43678;SDS011;29279;50.858;4.392;2023-04-01T02:29:48;15.18;;;4.07;;
43678;SDS011;29279;50.858;4.392;2023-04-01T02:32:14;12.48;;;3.80;;
43678;SDS011;29279;50.858;4.392;2023-04-01T02:34:42;12.95;;;3.90;;
43678;SDS011;29279;50.858;4.392;2023-04-01T02:37:08;14.70;;;4.03;;
43678;SDS011;29279;50.858;4.392;2023-04-01T02:39:36;11.25;;;3.80;;
43678;SDS011;29279;50.858;4.392;2023-04-01T02:42:02;15.23;;;3.97;;
43678;SDS011;29279;50.858;4.392;2023-04-01T02:44:28;13.00;;;3.83;;
43678;SDS011;29279;50.858;4.392;2023-04-01T02:46:53;17.85;;;3.97;;
43678;SDS011;29279;50.858;4.392;2023-04-01T02:49:19;13.57;;;4.00;;
43678;SDS011;29279;50.858;4.392;2023-04-01T02:51:45;18.85;;;4.30;;
43678;SDS011;29279;50.858;4.392;2023-04-01T02:54:11;14.52;;;3.40;;
43678;SDS011;29279;50.858;4.392;2023-04-01T02:56:36;15.98;;;4.65;;
43678;SDS011;29279;50.858;4.392;2023-04-01T02:59:02;16.40;;;3.70;;
43678;SDS011;29279;50.858;4.392;2023-04-01T03:01:28;14.63;;;3.65;;
43678;SDS011;29279;50.858;4.392;2023-04-01T03:03:53;16.17;;;4.30;;
43678;SDS011;29279;50.858;4.392;2023-04-01T03:06:19;13.45;;;3.72;;
43678;SDS011;29279;50.858;4.392;2023-04-01T03:08:45;14.80;;;4.55;;
43678;SDS011;29279;50.858;4.392;2023-04-01T03:11:11;14.55;;;3.50;;
43678;SDS011;29279;50.858;4.392;2023-04-01T03:13:37;10.35;;;3.63;;
43678;SDS011;29279;50.858;4.392;2023-04-01T03:16:03;13.07;;;4.63;;
43678;SDS011;29279;50.858;4.392;2023-04-01T03:18:28;13.57;;;5.18;;
43678;SDS011;29279;50.858;4.392;2023-04-01T03:20:54;14.93;;;5.20;;
43678;SDS011;29279;50.858;4.392;2023-04-01T03:23:20;13.38;;;4.95;;
43678;SDS011;29279;50.858;4.392;2023-04-01T03:25:46;12.05;;;5.20;;
43678;SDS011;29279;50.858;4.392;2023-04-01T03:28:13;17.73;;;6.13;;
43678;SDS011;29279;50.858;4.392;2023-04-01T03:30:39;14.70;;;6.22;;
43678;SDS011;29279;50.858;4.392;2023-04-01T03:33:05;15.73;;;6.97;;
43678;SDS011;29279;50.858;4.392;2023-04-01T03:35:31;16.63;;;6.68;;
43678;SDS011;29279;50.858;4.392;2023-04-01T03:37:57;22.60;;;6.85;;
43678;SDS011;29279;50.858;4.392;2023-04-01T03:40:23;16.30;;;6.25;;
43678;SDS011;29279;50.858;4.392;2023-04-01T03:42:51;26.58;;;7.95;;
43678;SDS011;29279;50.858;4.392;2023-04-01T03:45:17;25.50;;;7.15;;
43678;SDS011;29279;50.858;4.392;2023-04-01T03:47:43;22.08;;;7.90;;
43678;SDS011;29279;50.858;4.392;2023-04-01T03:50:09;22.67;;;7.43;;
43678;SDS011;29279;50.858;4.392;2023-04-01T03:52:35;17.90;;;7.45;;
43678;SDS011;29279;50.858;4.392;2023-04-01T03:55:00;24.73;;;8.27;;
43678;SDS011;29279;50.858;4.392;2023-04-01T03:57:27;26.95;;;8.23;;
43678;SDS011;29279;50.858;4.392;2023-04-01T03:59:53;22.85;;;9.38;;
43678;SDS011;29279;50.858;4.392;2023-04-01T04:02:19;18.23;;;7.65;;
43678;SDS011;29279;50.858;4.392;2023-04-01T04:04:44;16.85;;;7.10;;
43678;SDS011;29279;50.858;4.392;2023-04-01T04:07:12;19.30;;;8.02;;
43678;SDS011;29279;50.858;4.392;2023-04-01T04:09:38;23.35;;;7.65;;
43678;SDS011;29279;50.858;4.392;2023-04-01T04:12:04;24.58;;;6.88;;
43678;SDS011;29279;50.858;4.392;2023-04-01T04:14:31;24.40;;;7.55;;
43678;SDS011;29279;50.858;4.392;2023-04-01T04:16:57;20.38;;;7.50;;
43678;SDS011;29279;50.858;4.392;2023-04-01T04:19:22;22.63;;;7.03;;
43678;SDS011;29279;50.858;4.392;2023-04-01T04:21:48;16.30;;;6.72;;
43678;SDS011;29279;50.858;4.392;2023-04-01T04:24:14;23.50;;;7.57;;
43678;SDS011;29279;50.858;4.392;2023-04-01T04:26:40;29.77;;;6.95;;
43678;SDS011;29279;50.858;4.392;2023-04-01T04:29:06;14.18;;;5.93;;
43678;SDS011;29279;50.858;4.392;2023-04-01T04:31:31;15.65;;;5.70;;
43678;SDS011;29279;50.858;4.392;2023-04-01T04:33:58;15.30;;;5.60;;
43678;SDS011;29279;50.858;4.392;2023-04-01T04:36:25;20.45;;;5.63;;
43678;SDS011;29279;50.858;4.392;2023-04-01T04:38:50;6.30;;;3.72;;
43678;SDS011;29279;50.858;4.392;2023-04-01T04:41:17;10.50;;;4.40;;
43678;SDS011;29279;50.858;4.392;2023-04-01T04:43:48;11.77;;;4.38;;
43678;SDS011;29279;50.858;4.392;2023-04-01T04:46:21;10.32;;;5.07;;
43678;SDS011;29279;50.858;4.392;2023-04-01T04:48:47;9.73;;;4.10;;
43678;SDS011;29279;50.858;4.392;2023-04-01T04:51:16;8.20;;;4.28;;
43678;SDS011;29279;50.858;4.392;2023-04-01T04:53:43;9.63;;;4.30;;
43678;SDS011;29279;50.858;4.392;2023-04-01T04:56:09;13.05;;;4.43;;
43678;SDS011;29279;50.858;4.392;2023-04-01T04:58:39;9.30;;;3.95;;
43678;SDS011;29279;50.858;4.392;2023-04-01T05:01:05;6.88;;;3.30;;
43678;SDS011;29279;50.858;4.392;2023-04-01T05:03:35;6.25;;;3.10;;
43678;SDS011;29279;50.858;4.392;2023-04-01T05:06:01;6.07;;;2.80;;
43678;SDS011;29279;50.858;4.392;2023-04-01T05:08:27;8.55;;;3.83;;
43678;SDS011;29279;50.858;4.392;2023-04-01T05:10:53;7.45;;;3.67;;
43678;SDS011;29279;50.858;4.392;2023-04-01T05:13:19;7.55;;;3.90;;
43678;SDS011;29279;50.858;4.392;2023-04-01T05:15:45;10.10;;;3.63;;
43678;SDS011;29279;50.858;4.392;2023-04-01T05:18:10;7.22;;;4.55;;
43678;SDS011;29279;50.858;4.392;2023-04-01T05:20:36;10.05;;;4.97;;
43678;SDS011;29279;50.858;4.392;2023-04-01T05:23:02;8.82;;;4.22;;
43678;SDS011;29279;50.858;4.392;2023-04-01T05:25:28;8.65;;;5.38;;
43678;SDS011;29279;50.858;4.392;2023-04-01T05:27:53;7.88;;;4.65;;
43678;SDS011;29279;50.858;4.392;2023-04-01T05:30:19;7.55;;;4.97;;
43678;SDS011;29279;50.858;4.392;2023-04-01T05:32:45;10.95;;;5.20;;
43678;SDS011;29279;50.858;4.392;2023-04-01T05:35:11;10.07;;;5.07;;
43678;SDS011;29279;50.858;4.392;2023-04-01T05:37:37;11.27;;;5.45;;
43678;SDS011;29279;50.858;4.392;2023-04-01T05:40:03;12.02;;;5.78;;
43678;SDS011;29279;50.858;4.392;2023-04-01T05:42:29;14.18;;;7.05;;
43678;SDS011;29279;50.858;4.392;2023-04-01T05:44:55;13.48;;;7.10;;
43678;SDS011;29279;50.858;4.392;2023-04-01T05:47:21;15.60;;;7.05;;
43678;SDS011;29279;50.858;4.392;2023-04-01T05:49:47;16.40;;;7.05;;
43678;SDS011;29279;50.858;4.392;2023-04-01T05:52:13;17.00;;;7.47;;
43678;SDS011;29279;50.858;4.392;2023-04-01T05:54:39;11.35;;;7.30;;
43678;SDS011;29279;50.858;4.392;2023-04-01T05:57:05;14.75;;;7.15;;
43678;SDS011;29279;50.858;4.392;2023-04-01T05:59:30;20.45;;;8.57;;
43678;SDS011;29279;50.858;4.392;2023-04-01T06:01:56;18.10;;;8.07;;
43678;SDS011;29279;50.858;4.392;2023-04-01T06:04:22;14.90;;;8.23;;
43678;SDS011;29279;50.858;4.392;2023-04-01T06:06:49;18.25;;;8.40;;
43678;SDS011;29279;50.858;4.392;2023-04-01T06:09:23;17.48;;;8.43;;
43678;SDS011;29279;50.858;4.392;2023-04-01T06:14:36;18.95;;;9.73;;
43678;SDS011;29279;50.858;4.392;2023-04-01T06:17:59;19.63;;;8.73;;
43678;SDS011;29279;50.858;4.392;2023-04-01T06:23:01;20.67;;;10.57;;
43678;SDS011;29279;50.858;4.392;2023-04-01T06:53:21;16.90;;;7.97;;
43678;SDS011;29279;50.858;4.392;2023-04-01T06:58:26;16.25;;;8.98;;
43678;SDS011;29279;50.858;4.392;2023-04-01T07:00:57;17.40;;;8.13;;
43678;SDS011;29279;50.858;4.392;2023-04-01T07:03:36;21.02;;;8.65;;
43678;SDS011;29279;50.858;4.392;2023-04-01T07:06:09;16.10;;;7.10;;
43678;SDS011;29279;50.858;4.392;2023-04-01T07:08:54;15.43;;;7.95;;
43678;SDS011;29279;50.858;4.392;2023-04-01T07:11:33;21.13;;;7.53;;
43678;SDS011;29279;50.858;4.392;2023-04-01T07:19:45;9.52;;;5.57;;
43678;SDS011;29279;50.858;4.392;2023-04-01T07:22:27;11.30;;;6.63;;
43678;SDS011;29279;50.858;4.392;2023-04-01T07:25:15;9.30;;;6.05;;
43678;SDS011;29279;50.858;4.392;2023-04-01T07:27:42;13.70;;;5.75;;
43678;SDS011;29279;50.858;4.392;2023-04-01T07:30:28;8.23;;;4.90;;
43678;SDS011;29279;50.858;4.392;2023-04-01T07:33:23;8.23;;;4.38;;
43678;SDS011;29279;50.858;4.392;2023-04-01T07:38:29;10.38;;;4.05;;
43678;SDS011;29279;50.858;4.392;2023-04-01T07:41:32;10.20;;;3.90;;
43678;SDS011;29279;50.858;4.392;2023-04-01T07:49:55;4.72;;;3.30;;
43678;SDS011;29279;50.858;4.392;2023-04-01T07:52:29;9.77;;;4.25;;
43678;SDS011;29279;50.858;4.392;2023-04-01T07:55:21;7.03;;;4.57;;
43678;SDS011;29279;50.858;4.392;2023-04-01T08:00:30;9.23;;;3.10;;
43678;SDS011;29279;50.858;4.392;2023-04-01T08:05:49;3.95;;;2.42;;
43678;SDS011;29279;50.858;4.392;2023-04-01T08:14:08;4.35;;;2.33;;
43678;SDS011;29279;50.858;4.392;2023-04-01T08:17:11;4.65;;;2.00;;
43678;SDS011;29279;50.858;4.392;2023-04-01T08:22:26;1.63;;;1.40;;
43678;SDS011;29279;50.858;4.392;2023-04-01T08:24:56;4.68;;;1.88;;
43678;SDS011;29279;50.858;4.392;2023-04-01T08:30:18;2.33;;;1.52;;
43678;SDS011;29279;50.858;4.392;2023-04-01T08:33:11;1.77;;;1.17;;
43678;SDS011;29279;50.858;4.392;2023-04-01T08:35:55;3.63;;;1.95;;
43678;SDS011;29279;50.858;4.392;2023-04-01T08:39:11;3.40;;;2.05;;
43678;SDS011;29279;50.858;4.392;2023-04-01T09:00:13;2.88;;;1.95;;
43678;SDS011;29279;50.858;4.392;2023-04-01T09:12:18;2.38;;;1.40;;
43678;SDS011;29279;50.858;4.392;2023-04-01T09:15:20;3.08;;;1.65;;
43678;SDS011;29279;50.858;4.392;2023-04-01T09:18:13;3.50;;;2.00;;
43678;SDS011;29279;50.858;4.392;2023-04-01T09:29:10;3.80;;;2.30;;
43678;SDS011;29279;50.858;4.392;2023-04-01T09:34:51;4.60;;;2.10;;
43678;SDS011;29279;50.858;4.392;2023-04-01T09:51:53;4.55;;;2.45;;
43678;SDS011;29279;50.858;4.392;2023-04-01T10:12:24;5.78;;;2.50;;
43678;SDS011;29279;50.858;4.392;2023-04-01T10:17:51;8.13;;;2.80;;
43678;SDS011;29279;50.858;4.392;2023-04-01T10:20:30;4.03;;;2.40;;
43678;SDS011;29279;50.858;4.392;2023-04-01T10:34:14;2.60;;;2.05;;
43678;SDS011;29279;50.858;4.392;2023-04-01T10:48:23;3.58;;;1.27;;
43678;SDS011;29279;50.858;4.392;2023-04-01T10:51:14;2.42;;;1.23;;
43678;SDS011;29279;50.858;4.392;2023-04-01T11:07:22;6.35;;;1.40;;
43678;SDS011;29279;50.858;4.392;2023-04-01T11:18:36;2.22;;;0.93;;
43678;SDS011;29279;50.858;4.392;2023-04-01T11:23:58;1.73;;;1.10;;
43678;SDS011;29279;50.858;4.392;2023-04-01T11:32:19;3.70;;;1.83;;
43678;SDS011;29279;50.858;4.392;2023-04-01T11:38:28;5.53;;;1.42;;
43678;SDS011;29279;50.858;4.392;2023-04-01T11:46:44;3.65;;;1.80;;
43678;SDS011;29279;50.858;4.392;2023-04-01T11:55:24;4.30;;;1.30;;
43678;SDS011;29279;50.858;4.392;2023-04-01T12:00:42;4.20;;;1.40;;
43678;SDS011;29279;50.858;4.392;2023-04-01T12:06:33;2.58;;;1.80;;
43678;SDS011;29279;50.858;4.392;2023-04-01T12:09:38;2.97;;;1.75;;
43678;SDS011;29279;50.858;4.392;2023-04-01T12:15:10;3.00;;;1.60;;
43678;SDS011;29279;50.858;4.392;2023-04-01T12:18:06;4.53;;;1.80;;
43678;SDS011;29279;50.858;4.392;2023-04-01T12:30:02;7.43;;;2.20;;
43678;SDS011;29279;50.858;4.392;2023-04-01T12:32:45;5.75;;;2.30;;
43678;SDS011;29279;50.858;4.392;2023-04-01T12:35:52;5.97;;;2.33;;
43678;SDS011;29279;50.858;4.392;2023-04-01T12:38:29;3.30;;;1.95;;
43678;SDS011;29279;50.858;4.392;2023-04-01T12:46:54;5.20;;;2.38;;
43678;SDS011;29279;50.858;4.392;2023-04-01T12:54:55;2.45;;;2.00;;
43678;SDS011;29279;50.858;4.392;2023-04-01T13:09:15;3.65;;;2.10;;
43678;SDS011;29279;50.858;4.392;2023-04-01T13:20:06;4.60;;;2.15;;
43678;SDS011;29279;50.858;4.392;2023-04-01T13:27:55;6.43;;;1.40;;
43678;SDS011;29279;50.858;4.392;2023-04-01T13:33:04;2.42;;;1.60;;
43678;SDS011;29279;50.858;4.392;2023-04-01T13:41:25;2.75;;;1.90;;
43678;SDS011;29279;50.858;4.392;2023-04-01T13:50:19;3.05;;;1.73;;
43678;SDS011;29279;50.858;4.392;2023-04-01T13:52:16;3.85;;;1.50;;
43678;SDS011;29279;50.858;4.392;2023-04-01T13:55:10;2.85;;;1.80;;
43678;SDS011;29279;50.858;4.392;2023-04-01T14:11:21;2.78;;;1.15;;
43678;SDS011;29279;50.858;4.392;2023-04-01T14:25:01;2.83;;;1.70;;
43678;SDS011;29279;50.858;4.392;2023-04-01T14:27:56;3.33;;;1.70;;
43678;SDS011;29279;50.858;4.392;2023-04-01T14:30:46;4.90;;;1.98;;
43678;SDS011;29279;50.858;4.392;2023-04-01T14:33:31;2.65;;;1.33;;
43678;SDS011;29279;50.858;4.392;2023-04-01T14:46:54;3.50;;;1.23;;
43678;SDS011;29279;50.858;4.392;2023-04-01T14:49:47;1.85;;;1.10;;
43678;SDS011;29279;50.858;4.392;2023-04-01T14:54:53;3.00;;;1.20;;
43678;SDS011;29279;50.858;4.392;2023-04-01T15:00:12;3.05;;;1.40;;
43678;SDS011;29279;50.858;4.392;2023-04-01T15:05:27;3.85;;;1.20;;
43678;SDS011;29279;50.858;4.392;2023-04-01T15:13:39;3.10;;;1.60;;
43678;SDS011;29279;50.858;4.392;2023-04-01T15:22:34;4.22;;;1.48;;
43678;SDS011;29279;50.858;4.392;2023-04-01T15:33:18;2.28;;;1.60;;
43678;SDS011;29279;50.858;4.392;2023-04-01T15:38:53;3.05;;;1.42;;
43678;SDS011;29279;50.858;4.392;2023-04-01T15:52:49;5.43;;;1.80;;
43678;SDS011;29279;50.858;4.392;2023-04-01T15:55:31;3.85;;;1.27;;
43678;SDS011;29279;50.858;4.392;2023-04-01T16:09:35;3.53;;;1.00;;
43678;SDS011;29279;50.858;4.392;2023-04-01T16:15:20;2.97;;;1.02;;
43678;SDS011;29279;50.858;4.392;2023-04-01T16:23:51;3.72;;;1.30;;
43678;SDS011;29279;50.858;4.392;2023-04-01T16:26:26;5.95;;;1.35;;
43678;SDS011;29279;50.858;4.392;2023-04-01T16:31:55;3.08;;;1.63;;
43678;SDS011;29279;50.858;4.392;2023-04-01T16:34:34;3.08;;;1.55;;
43678;SDS011;29279;50.858;4.392;2023-04-01T16:37:11;5.80;;;1.98;;
43678;SDS011;29279;50.858;4.392;2023-04-01T16:47:38;4.00;;;2.40;;
43678;SDS011;29279;50.858;4.392;2023-04-01T16:50:24;6.97;;;2.72;;
43678;SDS011;29279;50.858;4.392;2023-04-01T17:01:18;4.80;;;2.10;;
43678;SDS011;29279;50.858;4.392;2023-04-01T17:04:01;6.32;;;2.60;;
43678;SDS011;29279;50.858;4.392;2023-04-01T17:07:01;4.28;;;2.00;;
43678;SDS011;29279;50.858;4.392;2023-04-01T17:17:49;5.78;;;2.78;;
43678;SDS011;29279;50.858;4.392;2023-04-01T17:23:39;4.30;;;2.10;;
43678;SDS011;29279;50.858;4.392;2023-04-01T17:26:32;3.35;;;2.20;;
43678;SDS011;29279;50.858;4.392;2023-04-01T17:34:33;4.18;;;2.50;;
43678;SDS011;29279;50.858;4.392;2023-04-01T17:40:25;4.80;;;2.67;;
43678;SDS011;29279;50.858;4.392;2023-04-01T17:45:49;3.50;;;2.00;;
43678;SDS011;29279;50.858;4.392;2023-04-01T17:51:19;5.97;;;2.90;;
43678;SDS011;29279;50.858;4.392;2023-04-01T17:53:58;4.57;;;3.00;;
43678;SDS011;29279;50.858;4.392;2023-04-01T17:56:49;4.78;;;2.92;;
43678;SDS011;29279;50.858;4.392;2023-04-01T17:59:38;6.00;;;2.85;;
43678;SDS011;29279;50.858;4.392;2023-04-01T18:13:03;5.53;;;2.92;;
43678;SDS011;29279;50.858;4.392;2023-04-01T18:18:43;7.57;;;4.25;;
43678;SDS011;29279;50.858;4.392;2023-04-01T18:21:33;7.75;;;4.10;;
43678;SDS011;29279;50.858;4.392;2023-04-01T18:27:15;6.93;;;4.60;;
43678;SDS011;29279;50.858;4.392;2023-04-01T18:29:47;7.10;;;5.70;;
43678;SDS011;29279;50.858;4.392;2023-04-01T18:32:34;10.82;;;6.40;;
43678;SDS011;29279;50.858;4.392;2023-04-01T18:50:11;9.05;;;6.07;;
43678;SDS011;29279;50.858;4.392;2023-04-01T18:52:45;9.15;;;5.65;;
43678;SDS011;29279;50.858;4.392;2023-04-01T18:57:51;11.02;;;6.93;;
43678;SDS011;29279;50.858;4.392;2023-04-01T19:06:07;14.35;;;9.35;;
43678;SDS011;29279;50.858;4.392;2023-04-01T19:08:40;18.52;;;9.93;;
43678;SDS011;29279;50.858;4.392;2023-04-01T19:14:05;17.42;;;11.57;;
43678;SDS011;29279;50.858;4.392;2023-04-01T19:16:54;18.45;;;11.50;;
43678;SDS011;29279;50.858;4.392;2023-04-01T19:19:49;22.75;;;12.77;;
43678;SDS011;29279;50.858;4.392;2023-04-01T19:30:59;25.83;;;15.98;;
43678;SDS011;29279;50.858;4.392;2023-04-01T19:36:47;33.72;;;18.00;;
43678;SDS011;29279;50.858;4.392;2023-04-01T19:41:55;40.75;;;18.30;;
43678;SDS011;29279;50.858;4.392;2023-04-01T19:50:17;33.35;;;18.90;;
43678;SDS011;29279;50.858;4.392;2023-04-01T20:01:23;32.47;;;19.52;;
43678;SDS011;29279;50.858;4.392;2023-04-01T20:04:10;32.60;;;19.70;;
43678;SDS011;29279;50.858;4.392;2023-04-01T20:06:47;34.05;;;18.60;;
43678;SDS011;29279;50.858;4.392;2023-04-01T20:09:34;32.20;;;17.25;;
43678;SDS011;29279;50.858;4.392;2023-04-01T20:14:50;37.58;;;18.83;;
43678;SDS011;29279;50.858;4.392;2023-04-01T20:44:09;23.63;;;13.43;;
43678;SDS011;29279;50.858;4.392;2023-04-01T21:06:10;40.90;;;18.90;;
43678;SDS011;29279;50.858;4.392;2023-04-01T21:25:36;37.28;;;19.20;;
43678;SDS011;29279;50.858;4.392;2023-04-01T21:34:03;43.65;;;19.23;;
43678;SDS011;29279;50.858;4.392;2023-04-01T21:56:57;46.75;;;22.27;;
43678;SDS011;29279;50.858;4.392;2023-04-01T22:07:59;35.72;;;19.50;;
43678;SDS011;29279;50.858;4.392;2023-04-01T22:33:33;29.38;;;18.73;;
43678;SDS011;29279;50.858;4.392;2023-04-01T22:43:48;27.48;;;20.08;;
43678;SDS011;29279;50.858;4.392;2023-04-01T22:54:46;28.55;;;21.08;;
43678;SDS011;29279;50.858;4.392;2023-04-01T23:00:05;29.65;;;22.33;;
43678;SDS011;29279;50.858;4.392;2023-04-01T23:03:14;32.72;;;21.95;;
43678;SDS011;29279;50.858;4.392;2023-04-01T23:05:53;34.33;;;22.58;;
43678;SDS011;29279;50.858;4.392;2023-04-01T23:08:39;36.28;;;22.17;;
43678;SDS011;29279;50.858;4.392;2023-04-01T23:11:10;37.55;;;24.30;;
43678;SDS011;29279;50.858;4.392;2023-04-01T23:13:46;37.97;;;23.55;;
43678;SDS011;29279;50.858;4.392;2023-04-01T23:16:19;27.13;;;19.80;;
43678;SDS011;29279;50.858;4.392;2023-04-01T23:19:25;29.25;;;19.10;;
43678;SDS011;29279;50.858;4.392;2023-04-01T23:21:52;30.27;;;20.90;;
43678;SDS011;29279;50.858;4.392;2023-04-01T23:27:24;43.63;;;27.38;;
43678;SDS011;29279;50.858;4.392;2023-04-01T23:30:00;36.05;;;23.70;;
43678;SDS011;29279;50.858;4.392;2023-04-01T23:32:26;35.13;;;22.38;;
43678;SDS011;29279;50.858;4.392;2023-04-01T23:34:53;30.60;;;21.23;;
43678;SDS011;29279;50.858;4.392;2023-04-01T23:37:23;27.50;;;19.60;;
43678;SDS011;29279;50.858;4.392;2023-04-01T23:39:56;32.78;;;21.38;;
43678;SDS011;29279;50.858;4.392;2023-04-01T23:42:24;35.80;;;22.60;;
43678;SDS011;29279;50.858;4.392;2023-04-01T23:44:56;32.17;;;21.37;;
43678;SDS011;29279;50.858;4.392;2023-04-01T23:47:29;30.40;;;21.33;;
43678;SDS011;29279;50.858;4.392;2023-04-01T23:50:05;32.63;;;22.27;;
43678;SDS011;29279;50.858;4.392;2023-04-01T23:52:39;29.67;;;21.85;;
43678;SDS011;29279;50.858;4.392;2023-04-01T23:57:36;39.90;;;24.67;;
